This is the latest recevied weather packets stored in our database for station/object NM5PB-13. If no packets are shown the sender has not sent any weather packets the latest 10 day(s).
| Time | Temp. | Humidity | Pressure | Rain* | Wind** | Luminosity | Snow |
|---|---|---|---|---|---|---|---|
| 1787532535 | 20° C | 79% | 1017 hPa | 0 mm | - | - | - |
| 1787531633 | 20.56° C | 74% | 1017 hPa | 0 mm | - | - | - |
| 1787530728 | 21.11° C | 70% | 1017 hPa | 0 mm | - | - | - |
| 1787529824 | 22.22° C | 62% | 1017 hPa | 0 mm | - | - | - |
| 1787528917 | 22.78° C | 55% | 1017 hPa | 0 mm | - | - | - |
| 1787528012 | 23.33° C | 54% | 1017 hPa | 0 mm | - | - | - |
| 1787527104 | 23.33° C | 53% | 1017 hPa | 0 mm | - | - | - |
| 1787526201 | 23.89° C | 50% | 1017 hPa | 0 mm | - | - | - |
| 1787525296 | 24.44° C | 51% | 1017 hPa | 0 mm | - | - | - |
| 1787524392 | 25° C | 47% | 1017 hPa | 0 mm | - | - | - |
| 1787523488 | 24.44° C | 48% | 1017 hPa | 0 mm | - | - | - |
| 1787522585 | 25° C | 48% | 1017 hPa | 0 mm | - | - | - |
| 1787521679 | 25° C | 47% | 1017 hPa | 0 mm | - | - | - |
| 1787520776 | 25° C | 46% | 1018 hPa | 0 mm | - | - | - |
| 1787519873 | 25.56° C | 45% | 1018 hPa | 0 mm | - | - | - |
| 1787518968 | 25° C | 46% | 1018 hPa | 0 mm | - | - | - |
| 1787518064 | 25° C | 46% | 1018 hPa | 0 mm | - | - | - |
| 1787517159 | 25° C | 47% | 1018 hPa | 0 mm | - | - | - |
| 1787516256 | 25.56° C | 45% | 1018 hPa | 0 mm | - | - | - |
| 1787515351 | 25° C | 47% | 1018 hPa | 0 mm | - | - | - |
| 1787514447 | 25° C | 47% | 1019 hPa | 0 mm | - | - | - |
| 1787513544 | 24.44° C | 46% | 1019 hPa | 0 mm | - | - | - |
| 1787512640 | 24.44° C | 46% | 1019 hPa | 0 mm | - | - | - |
| 1787511736 | 24.44° C | 46% | 1019 hPa | 0 mm | - | - | - |
| 1787510831 | 23.89° C | 46% | 1019 hPa | 0 mm | - | - | - |
* Rain latest hour (hover to see other rain measurements)
** Current wind speed in m/s (hover to see current wind gust speed)